createdAt,value
2022-08-27T00:01:22.753Z,14.68
2022-08-27T00:03:50.471Z,17.38
2022-08-27T00:06:19.825Z,18.13
2022-08-27T00:08:48.915Z,15.77
2022-08-27T00:11:17.745Z,18.75
2022-08-27T00:13:45.983Z,18.25
2022-08-27T00:16:15.694Z,12.65
2022-08-27T00:18:48.021Z,13.95
2022-08-27T00:21:17.844Z,16.85
2022-08-27T00:23:45.298Z,13.07
2022-08-27T00:26:14.041Z,18.40
2022-08-27T00:28:41.982Z,24.35
2022-08-27T00:31:11.356Z,21.25
2022-08-27T00:33:39.815Z,17.50
2022-08-27T00:36:08.025Z,15.65
2022-08-27T00:38:36.795Z,20.08
2022-08-27T00:41:04.833Z,17.60
2022-08-27T00:43:45.575Z,16.20
2022-08-27T00:46:21.627Z,19.10
2022-08-27T00:48:53.066Z,17.42
2022-08-27T00:51:22.393Z,19.08
2022-08-27T00:53:52.065Z,20.73
2022-08-27T00:56:23.423Z,15.80
2022-08-27T00:58:53.104Z,18.70
2022-08-27T01:01:27.816Z,16.10
2022-08-27T01:03:58.863Z,15.98
2022-08-27T01:06:31.583Z,17.92
2022-08-27T01:09:05.344Z,18.08
2022-08-27T01:11:32.577Z,17.35
2022-08-27T01:14:01.406Z,18.98
2022-08-27T01:16:36.126Z,22.23
2022-08-27T01:19:09.142Z,17.60
2022-08-27T01:21:49.897Z,19.05
2022-08-27T01:24:41.073Z,19.70
2022-08-27T01:27:13.610Z,21.40
2022-08-27T01:29:41.715Z,14.80
2022-08-27T01:32:25.863Z,18.55
2022-08-27T01:34:54.082Z,18.55
2022-08-27T01:37:24.088Z,18.65
2022-08-27T01:42:44.083Z,20.48
2022-08-27T01:45:32.386Z,21.20
2022-08-27T01:48:00.813Z,22.20
2022-08-27T01:50:32.222Z,17.60
2022-08-27T01:53:03.763Z,19.65
2022-08-27T01:55:31.029Z,15.68
2022-08-27T01:57:58.465Z,20.20
2022-08-27T02:00:33.099Z,16.90
2022-08-27T02:03:01.035Z,16.50
2022-08-27T02:05:29.383Z,13.18
2022-08-27T02:07:56.892Z,19.85
2022-08-27T02:10:32.092Z,17.55
2022-08-27T02:13:00.542Z,15.70
2022-08-27T02:15:28.779Z,17.17
2022-08-27T02:17:56.504Z,16.60
2022-08-27T02:20:23.864Z,19.10
2022-08-27T02:22:55.539Z,17.50
2022-08-27T02:25:22.907Z,17.45
2022-08-27T02:27:51.076Z,14.63
2022-08-27T02:30:22.295Z,17.58
2022-08-27T02:32:49.873Z,14.48
2022-08-27T02:35:19.442Z,16.77
2022-08-27T02:37:47.620Z,19.92
2022-08-27T02:40:18.157Z,13.93
2022-08-27T02:42:46.942Z,15.98
2022-08-27T02:45:16.104Z,14.68
2022-08-27T02:47:43.758Z,13.93
2022-08-27T02:50:12.516Z,12.77
2022-08-27T02:52:39.844Z,17.33
2022-08-27T02:55:08.304Z,18.75
2022-08-27T02:57:36.570Z,15.40
2022-08-27T03:00:13.227Z,18.50
2022-08-27T03:02:40.676Z,18.15
2022-08-27T03:05:09.312Z,16.83
2022-08-27T03:07:37.616Z,14.82
2022-08-27T03:10:05.988Z,13.70
2022-08-27T03:12:36.349Z,12.93
2022-08-27T03:15:09.255Z,20.65
2022-08-27T03:17:55.744Z,16.13
2022-08-27T03:20:24.184Z,19.77
2022-08-27T03:22:51.662Z,21.75
2022-08-27T03:25:19.810Z,21.55
2022-08-27T03:27:47.522Z,19.02
2022-08-27T03:30:19.208Z,22.35
2022-08-27T03:32:46.896Z,18.65
2022-08-27T03:35:14.387Z,19.02
2022-08-27T03:37:42.029Z,18.08
2022-08-27T03:40:10.408Z,18.80
2022-08-27T03:42:39.220Z,18.83
2022-08-27T03:45:08.026Z,17.48
2022-08-27T03:47:36.152Z,17.33
2022-08-27T03:50:06.345Z,18.42
2022-08-27T03:55:02.083Z,26.10
2022-08-27T03:57:29.318Z,17.58
2022-08-27T03:59:57.316Z,16.40
2022-08-27T04:02:24.622Z,18.80
2022-08-27T04:04:51.996Z,17.08
2022-08-27T04:07:19.442Z,15.13
2022-08-27T04:09:46.704Z,17.23
2022-08-27T04:12:13.832Z,14.98
2022-08-27T04:14:41.069Z,13.68
2022-08-27T04:17:08.318Z,16.05
2022-08-27T04:19:35.553Z,15.25
2022-08-27T04:22:05.783Z,16.08
2022-08-27T04:24:34.836Z,21.73
2022-08-27T04:27:03.031Z,14.60
2022-08-27T04:29:30.386Z,15.60
2022-08-27T04:31:58.376Z,13.10
2022-08-27T04:34:25.576Z,16.50
2022-08-27T04:36:56.881Z,19.10
2022-08-27T04:39:24.983Z,18.13
2022-08-27T04:41:55.837Z,15.45
2022-08-27T04:44:24.034Z,15.27
2022-08-27T04:46:56.721Z,15.07
2022-08-27T04:49:24.593Z,15.70
2022-08-27T04:51:52.358Z,18.55
2022-08-27T04:54:26.003Z,12.73
2022-08-27T04:57:01.786Z,17.70
2022-08-27T04:59:30.270Z,13.93
2022-08-27T05:01:57.684Z,14.55
2022-08-27T05:04:25.071Z,13.40
2022-08-27T05:06:54.493Z,15.43
2022-08-27T05:09:24.539Z,14.20
2022-08-27T05:11:55.694Z,11.98
2022-08-27T05:14:24.427Z,14.57
2022-08-27T05:16:52.004Z,16.88
2022-08-27T05:19:19.221Z,15.65
2022-08-27T05:21:49.687Z,12.25
2022-08-27T05:24:18.104Z,14.70
2022-08-27T05:26:46.423Z,14.35
2022-08-27T05:29:14.546Z,11.95
2022-08-27T05:31:42.861Z,15.25
2022-08-27T05:34:16.439Z,13.20
2022-08-27T05:36:47.957Z,14.88
2022-08-27T05:39:17.206Z,16.73
2022-08-27T05:41:44.607Z,15.65
2022-08-27T05:44:40.246Z,16.05
2022-08-27T05:46:59.616Z,14.38
2022-08-27T05:49:26.918Z,15.73
2022-08-27T05:51:54.254Z,13.85
2022-08-27T05:54:21.547Z,20.40
2022-08-27T05:56:50.318Z,12.75
2022-08-27T05:59:36.708Z,16.20
2022-08-27T06:02:04.515Z,14.68
2022-08-27T06:04:31.829Z,15.13
2022-08-27T06:06:59.046Z,14.88
2022-08-27T06:09:29.609Z,14.38
2022-08-27T06:12:00.002Z,15.05
2022-08-27T06:14:28.388Z,14.30
2022-08-27T06:16:56.477Z,12.95
2022-08-27T06:19:24.447Z,9.82
2022-08-27T06:22:00.800Z,11.30
2022-08-27T06:24:37.081Z,15.90
2022-08-27T06:27:04.467Z,12.98
2022-08-27T06:29:31.681Z,10.45
2022-08-27T06:31:58.875Z,12.95
2022-08-27T06:34:26.272Z,10.45
2022-08-27T06:36:54.744Z,10.50
2022-08-27T06:39:21.969Z,10.05
2022-08-27T06:41:50.511Z,17.95
2022-08-27T06:44:22.423Z,12.27
2022-08-27T06:46:49.709Z,10.63
2022-08-27T06:49:16.990Z,11.55
2022-08-27T06:51:47.305Z,11.85
2022-08-27T06:54:16.725Z,10.98
2022-08-27T06:56:44.897Z,10.18
2022-08-27T06:59:15.801Z,11.52
2022-08-27T07:01:46.276Z,9.60
2022-08-27T07:04:20.179Z,11.57
2022-08-27T07:06:47.504Z,9.32
2022-08-27T07:09:15.086Z,9.13
2022-08-27T07:11:42.851Z,11.90
2022-08-27T07:14:10.265Z,10.32
2022-08-27T07:16:39.655Z,8.07
2022-08-27T07:19:08.319Z,12.00
2022-08-27T07:21:36.355Z,8.05
2022-08-27T07:24:05.862Z,11.90
2022-08-27T07:26:35.145Z,9.38
2022-08-27T07:29:04.160Z,10.17
2022-08-27T07:31:31.538Z,9.80
2022-08-27T07:33:58.952Z,8.75
2022-08-27T07:36:40.560Z,11.50
2022-08-27T07:39:14.241Z,9.27
2022-08-27T07:42:00.420Z,10.87
2022-08-27T07:44:34.547Z,9.63
2022-08-27T07:47:03.035Z,8.48
2022-08-27T07:49:31.933Z,8.40
2022-08-27T07:51:59.424Z,11.23
2022-08-27T07:54:27.199Z,10.27
2022-08-27T07:56:56.187Z,8.63
2022-08-27T07:59:27.698Z,8.15
2022-08-27T08:01:56.944Z,9.73
2022-08-27T08:04:25.384Z,9.02
2022-08-27T08:06:52.923Z,7.15
2022-08-27T08:09:22.509Z,9.63
2022-08-27T08:11:51.374Z,9.02
2022-08-27T08:14:19.772Z,7.63
2022-08-27T08:16:47.124Z,10.15
2022-08-27T08:19:14.696Z,7.28
2022-08-27T08:21:43.002Z,8.73
2022-08-27T08:24:10.425Z,8.55
2022-08-27T08:26:37.848Z,12.82
2022-08-27T08:29:05.457Z,7.20
2022-08-27T08:31:33.325Z,9.88
2022-08-27T08:34:01.197Z,11.15
2022-08-27T08:36:28.662Z,9.43
2022-08-27T08:38:56.026Z,11.98
2022-08-27T08:41:23.481Z,8.77
2022-08-27T08:43:52.077Z,11.23
2022-08-27T08:46:26.134Z,8.68
2022-08-27T08:48:57.715Z,8.65
2022-08-27T08:51:31.744Z,8.00
2022-08-27T08:54:04.627Z,8.88
2022-08-27T08:56:59.905Z,9.90
2022-08-27T08:59:33.960Z,8.77
2022-08-27T09:02:01.697Z,8.23
2022-08-27T09:04:30.363Z,7.88
2022-08-27T09:07:29.679Z,8.27
2022-08-27T09:10:34.908Z,10.75
2022-08-27T09:13:05.838Z,9.85
2022-08-27T09:15:36.895Z,13.85
2022-08-27T09:18:14.120Z,8.10
2022-08-27T09:20:46.617Z,6.47
2022-08-27T09:23:51.912Z,7.53
2022-08-27T09:26:26.858Z,9.57
2022-08-27T09:29:17.664Z,9.35
2022-08-27T09:31:58.517Z,10.05
2022-08-27T09:34:34.902Z,8.95
2022-08-27T09:37:10.716Z,8.95
2022-08-27T09:39:49.067Z,9.48
2022-08-27T09:42:37.944Z,8.20
2022-08-27T09:45:11.880Z,7.32
2022-08-27T09:47:51.584Z,11.27
2022-08-27T09:50:22.436Z,8.27
2022-08-27T09:52:56.743Z,7.88
2022-08-27T09:55:44.033Z,9.10
2022-08-27T09:58:43.396Z,9.85
2022-08-27T10:01:25.991Z,10.40
2022-08-27T10:04:12.281Z,9.40
2022-08-27T10:06:46.822Z,10.02
2022-08-27T10:09:20.362Z,8.00
2022-08-27T10:12:03.876Z,16.20
2022-08-27T10:14:53.524Z,6.75
2022-08-27T10:18:02.864Z,8.48
2022-08-27T10:21:11.879Z,7.82
2022-08-27T10:24:23.223Z,9.30
2022-08-27T10:27:22.744Z,10.20
2022-08-27T10:30:01.288Z,8.15
2022-08-27T10:33:04.211Z,7.82
2022-08-27T10:35:54.771Z,9.05
2022-08-27T10:38:50.560Z,8.32
2022-08-27T10:41:28.896Z,9.68
2022-08-27T10:44:02.387Z,9.27
2022-08-27T10:46:50.543Z,14.75
2022-08-27T10:49:42.680Z,8.20
2022-08-27T10:52:31.664Z,7.20
2022-08-27T10:55:22.130Z,10.98
2022-08-27T10:58:10.689Z,8.82
2022-08-27T11:00:55.679Z,10.75
2022-08-27T11:03:36.347Z,11.15
2022-08-27T11:06:25.502Z,7.95
2022-08-27T11:08:59.582Z,7.43
2022-08-27T11:14:47.558Z,11.90
2022-08-27T11:17:32.299Z,8.40
2022-08-27T11:20:04.865Z,8.40
2022-08-27T11:22:49.382Z,6.63
2022-08-27T11:25:52.132Z,7.93
2022-08-27T11:28:29.684Z,8.93
2022-08-27T11:31:20.203Z,6.78
2022-08-27T11:36:57.316Z,6.45
2022-08-27T11:39:52.138Z,8.57
2022-08-27T11:42:57.631Z,10.57
2022-08-27T11:45:38.916Z,10.55
2022-08-27T11:48:39.242Z,10.45
2022-08-27T11:51:10.943Z,12.63
2022-08-27T11:53:54.554Z,6.68
2022-08-27T11:56:44.089Z,7.20
2022-08-27T11:59:12.644Z,6.45
2022-08-27T12:01:40.611Z,6.78
2022-08-27T12:04:31.631Z,5.40
2022-08-27T12:07:25.347Z,7.90
2022-08-27T12:10:19.947Z,8.52
2022-08-27T12:12:47.232Z,9.90
2022-08-27T12:15:27.559Z,5.55
2022-08-27T12:18:20.289Z,5.38
2022-08-27T12:21:03.476Z,8.20
2022-08-27T12:23:45.560Z,7.35
2022-08-27T12:26:41.863Z,7.13
2022-08-27T12:29:31.533Z,10.57
2022-08-27T12:32:11.506Z,6.15
2022-08-27T12:37:26.608Z,8.65
2022-08-27T12:39:57.870Z,6.90
2022-08-27T12:42:25.227Z,11.77
2022-08-27T12:44:57.542Z,6.55
2022-08-27T12:47:25.181Z,6.85
2022-08-27T12:49:58.853Z,11.93
2022-08-27T12:52:31.735Z,9.25
2022-08-27T12:54:59.429Z,8.55
2022-08-27T12:57:48.105Z,9.65
2022-08-27T13:00:24.191Z,6.18
2022-08-27T13:03:21.681Z,7.55
2022-08-27T13:05:51.233Z,5.85
2022-08-27T13:08:23.009Z,6.50
2022-08-27T13:10:51.241Z,9.68
2022-08-27T13:13:24.584Z,8.32
2022-08-27T13:15:58.930Z,10.40
2022-08-27T13:18:29.467Z,5.85
2022-08-27T13:21:16.628Z,8.95
2022-08-27T13:23:59.570Z,7.93
2022-08-27T13:26:30.543Z,7.28
2022-08-27T13:29:03.250Z,9.52
2022-08-27T13:31:32.427Z,9.98
2022-08-27T13:34:01.423Z,6.55
2022-08-27T13:36:49.330Z,9.90
2022-08-27T13:39:17.035Z,6.72
2022-08-27T13:41:47.663Z,6.68
2022-08-27T13:44:18.910Z,7.03
2022-08-27T13:47:01.620Z,10.35
2022-08-27T13:49:32.101Z,5.95
2022-08-27T13:52:07.316Z,9.10
2022-08-27T13:54:35.745Z,7.45
2022-08-27T13:57:10.429Z,8.07
2022-08-27T13:59:43.248Z,9.48
2022-08-27T14:02:10.777Z,8.40
2022-08-27T14:04:40.631Z,10.02
2022-08-27T14:07:14.500Z,5.43
2022-08-27T14:09:54.367Z,6.25
2022-08-27T14:12:38.417Z,5.13
2022-08-27T14:15:31.991Z,7.93
2022-08-27T14:17:59.865Z,7.55
2022-08-27T14:20:28.101Z,7.55
2022-08-27T14:22:56.264Z,8.20
2022-08-27T14:25:24.041Z,7.28
2022-08-27T14:27:54.367Z,9.20
2022-08-27T14:30:29.115Z,6.07
2022-08-27T14:33:00.748Z,9.00
2022-08-27T14:35:30.277Z,8.32
2022-08-27T14:37:59.304Z,7.50
2022-08-27T14:40:26.612Z,12.43
2022-08-27T14:42:53.945Z,5.63
2022-08-27T14:45:23.625Z,8.85
2022-08-27T14:47:51.749Z,10.57
2022-08-27T14:50:19.153Z,7.57
2022-08-27T14:52:46.482Z,8.88
2022-08-27T14:55:14.903Z,8.02
2022-08-27T14:57:42.263Z,7.60
2022-08-27T15:00:10.984Z,5.22
2022-08-27T15:02:44.914Z,7.82
2022-08-27T15:05:17.596Z,5.70
2022-08-27T15:07:46.197Z,7.45
2022-08-27T15:10:15.019Z,11.23
2022-08-27T15:12:42.915Z,6.80
2022-08-27T15:15:11.584Z,6.70
2022-08-27T15:17:39.028Z,7.60
2022-08-27T15:20:11.806Z,10.02
2022-08-27T15:22:47.344Z,9.10
2022-08-27T15:25:15.985Z,6.97
2022-08-27T15:27:43.584Z,10.50
2022-08-27T15:30:13.824Z,10.50
2022-08-27T15:32:44.350Z,10.30
2022-08-27T15:35:15.464Z,16.73
2022-08-27T15:37:45.063Z,14.93
2022-08-27T15:40:15.037Z,7.85
2022-08-27T15:45:12.135Z,9.10
2022-08-27T15:47:39.904Z,11.75
2022-08-27T15:50:08.314Z,11.43
2022-08-27T15:52:40.669Z,8.85
2022-08-27T15:55:33.739Z,15.05
2022-08-27T15:58:01.592Z,36.40
2022-08-27T16:00:30.576Z,19.23
2022-08-27T16:02:58.163Z,12.23
2022-08-27T16:05:28.789Z,15.75
2022-08-27T16:07:56.415Z,15.20
2022-08-27T16:10:23.715Z,16.60
2022-08-27T16:12:51.458Z,17.80
2022-08-27T16:15:18.943Z,9.32
2022-08-27T16:17:46.456Z,9.30
2022-08-27T16:20:16.098Z,8.15
2022-08-27T16:22:44.644Z,7.90
2022-08-27T16:25:17.783Z,9.40
2022-08-27T16:27:46.737Z,9.60
2022-08-27T16:30:14.777Z,10.75
2022-08-27T16:32:44.937Z,10.68
2022-08-27T16:35:12.257Z,12.00
2022-08-27T16:37:39.689Z,10.90
2022-08-27T16:40:07.667Z,10.05
2022-08-27T16:42:43.416Z,8.57
2022-08-27T16:45:14.220Z,7.40
2022-08-27T16:48:01.694Z,10.02
2022-08-27T16:50:35.976Z,11.45
2022-08-27T16:53:06.296Z,59.60
2022-08-27T16:55:34.899Z,23.67
2022-08-27T16:58:02.418Z,24.30
2022-08-27T17:00:30.379Z,15.57
2022-08-27T17:02:58.115Z,11.73
2022-08-27T17:05:41.079Z,10.82
2022-08-27T17:08:11.603Z,8.98
2022-08-27T17:10:45.936Z,10.25
2022-08-27T17:13:15.936Z,13.65
2022-08-27T17:18:11.646Z,19.33
2022-08-27T17:20:38.926Z,28.67
2022-08-27T17:23:07.856Z,34.33
2022-08-27T17:25:35.017Z,28.48
2022-08-27T17:28:02.465Z,27.70
2022-08-27T17:30:29.813Z,28.92
2022-08-27T17:32:57.330Z,32.00
2022-08-27T17:35:24.616Z,19.58
2022-08-27T17:37:52.291Z,24.25
2022-08-27T17:40:19.618Z,22.15
2022-08-27T17:42:46.988Z,18.58
2022-08-27T17:45:14.378Z,15.48
2022-08-27T17:47:41.897Z,12.50
2022-08-27T17:50:09.656Z,13.73
2022-08-27T17:52:40.287Z,15.70
2022-08-27T17:55:08.288Z,36.13
2022-08-27T17:57:40.848Z,31.80
2022-08-27T18:00:12.968Z,23.02
2022-08-27T18:02:47.666Z,41.95
2022-08-27T18:05:16.379Z,37.50
2022-08-27T18:07:44.420Z,21.13
2022-08-27T18:10:14.830Z,12.95
2022-08-27T18:12:43.271Z,13.57
2022-08-27T18:15:27.226Z,11.82
2022-08-27T18:17:55.452Z,10.95
2022-08-27T18:20:25.856Z,13.20
2022-08-27T18:22:53.342Z,11.30
2022-08-27T18:25:24.743Z,10.43
2022-08-27T18:27:56.540Z,10.93
2022-08-27T18:30:24.749Z,21.02
2022-08-27T18:32:52.007Z,25.42
2022-08-27T18:35:25.678Z,52.97
2022-08-27T18:37:53.459Z,19.70
2022-08-27T18:40:23.662Z,59.55
2022-08-27T18:45:23.294Z,62.55
2022-08-27T18:47:52.056Z,56.40
2022-08-27T18:50:20.994Z,72.05
2022-08-27T18:52:50.575Z,50.50
2022-08-27T18:55:22.217Z,86.72
2022-08-27T18:57:49.799Z,69.85
2022-08-27T19:00:19.421Z,77.85
2022-08-27T19:02:52.315Z,89.18
2022-08-27T19:05:27.776Z,72.65
2022-08-27T19:07:57.500Z,94.10
2022-08-27T19:10:25.525Z,93.43
2022-08-27T19:12:53.245Z,72.25
2022-08-27T19:15:21.111Z,66.60
2022-08-27T19:17:54.259Z,65.25
2022-08-27T19:20:22.778Z,45.00
2022-08-27T19:22:50.835Z,49.58
2022-08-27T19:25:18.429Z,52.15
2022-08-27T19:27:47.096Z,58.78
2022-08-27T19:30:16.377Z,65.25
2022-08-27T19:32:44.378Z,73.77
2022-08-27T19:35:11.818Z,72.97
2022-08-27T19:37:52.620Z,71.90
2022-08-27T19:40:22.376Z,144.80
2022-08-27T19:42:50.377Z,156.32
2022-08-27T19:45:23.323Z,116.03
2022-08-27T19:47:52.897Z,95.85
2022-08-27T19:50:22.456Z,99.63
2022-08-27T19:52:50.698Z,67.53
2022-08-27T19:55:18.021Z,54.08
2022-08-27T19:57:45.708Z,68.47
2022-08-27T20:00:15.700Z,74.72
2022-08-27T20:02:43.003Z,64.43
2022-08-27T20:05:18.910Z,49.83
2022-08-27T20:07:52.621Z,20.70
2022-08-27T20:10:23.137Z,18.35
2022-08-27T20:12:53.602Z,17.52
2022-08-27T20:15:23.457Z,18.98
2022-08-27T20:17:52.648Z,16.20
2022-08-27T20:20:23.287Z,14.45
2022-08-27T20:22:51.290Z,21.27
2022-08-27T20:25:19.457Z,17.60
2022-08-27T20:27:47.904Z,18.13
2022-08-27T20:30:16.136Z,18.73
2022-08-27T20:32:43.498Z,16.27
2022-08-27T20:35:11.298Z,15.73
2022-08-27T20:37:42.269Z,16.48
2022-08-27T20:40:13.749Z,125.35
2022-08-27T20:42:41.099Z,70.80
2022-08-27T20:45:12.169Z,54.60
2022-08-27T20:47:41.330Z,43.70
2022-08-27T20:50:09.815Z,46.33
2022-08-27T20:52:40.385Z,64.07
2022-08-27T20:55:09.967Z,32.28
2022-08-27T20:57:37.350Z,45.47
2022-08-27T21:00:21.817Z,45.80
2022-08-27T21:02:49.456Z,56.17
2022-08-27T21:05:19.376Z,42.55
2022-08-27T21:07:48.957Z,35.88
2022-08-27T21:10:16.950Z,24.30
2022-08-27T21:12:45.179Z,17.95
2022-08-27T21:15:13.435Z,26.65
2022-08-27T21:17:40.707Z,19.65
2022-08-27T21:20:11.173Z,31.90
2022-08-27T21:22:39.254Z,32.35
2022-08-27T21:25:07.868Z,30.25
2022-08-27T21:27:34.989Z,28.15
2022-08-27T21:30:02.258Z,19.05
2022-08-27T21:32:29.661Z,22.23
2022-08-27T21:34:56.963Z,18.55
2022-08-27T21:37:24.169Z,16.05
2022-08-27T21:39:51.467Z,21.05
2022-08-27T21:42:18.737Z,21.50
2022-08-27T21:44:46.129Z,23.35
2022-08-27T21:47:13.511Z,24.17
2022-08-27T21:49:41.178Z,22.30
2022-08-27T21:52:08.481Z,22.70
2022-08-27T21:54:38.934Z,25.88
2022-08-27T21:57:07.799Z,34.17
2022-08-27T21:59:41.527Z,34.25
2022-08-27T22:02:28.937Z,26.13
2022-08-27T22:04:56.537Z,23.45
2022-08-27T22:07:24.527Z,28.17
2022-08-27T22:09:51.771Z,24.92
2022-08-27T22:12:19.053Z,18.00
2022-08-27T22:14:46.187Z,20.27
2022-08-27T22:17:15.982Z,18.25
2022-08-27T22:19:43.373Z,12.82
2022-08-27T22:22:10.827Z,17.23
2022-08-27T22:24:38.037Z,13.45
2022-08-27T22:27:06.396Z,13.07
2022-08-27T22:29:33.641Z,18.08
2022-08-27T22:32:00.794Z,11.85
2022-08-27T22:34:27.914Z,14.05
2022-08-27T22:36:55.072Z,11.15
2022-08-27T22:39:22.308Z,15.52
2022-08-27T22:41:51.447Z,12.95
2022-08-27T22:44:18.674Z,12.82
2022-08-27T22:46:45.898Z,13.43
2022-08-27T22:49:13.165Z,13.80
2022-08-27T22:51:40.314Z,14.75
2022-08-27T22:54:08.219Z,16.23
2022-08-27T22:56:35.895Z,13.45
2022-08-27T22:59:03.884Z,17.20
2022-08-27T23:01:36.453Z,12.57
2022-08-27T23:04:06.531Z,15.18
2022-08-27T23:09:02.062Z,15.48
2022-08-27T23:11:32.133Z,15.32
2022-08-27T23:14:00.364Z,14.43
2022-08-27T23:16:28.546Z,15.20
2022-08-27T23:18:55.759Z,19.95
2022-08-27T23:21:23.262Z,18.42
2022-08-27T23:23:50.375Z,15.10
2022-08-27T23:26:36.090Z,18.27
2022-08-27T23:29:03.200Z,17.52
2022-08-27T23:31:30.393Z,18.58
2022-08-27T23:33:57.661Z,25.20
2022-08-27T23:36:25.161Z,22.70
2022-08-27T23:38:52.271Z,27.05
2022-08-27T23:41:19.393Z,29.13
2022-08-27T23:43:46.749Z,28.33
2022-08-27T23:46:14.075Z,29.58
2022-08-27T23:48:41.287Z,23.33
2022-08-27T23:51:09.167Z,20.73
2022-08-27T23:53:38.302Z,22.20
2022-08-27T23:56:06.333Z,17.52
2022-08-27T23:58:33.423Z,24.58
